Time;durP1;ratioP1;P1;durP2;ratioP2;P2;SDS_P1;SDS_P2;PMS_P1;PMS_P2;Temp;Humidity;BMP_temperature;BMP_pressure;BME280_temperature;BME280_humidity;BME280_pressure;Samples;Min_cycle;Max_cycle;Signal;HPM_P1;HPM_P2
2021/12/25 00:00:22;;;;;;;4.88;3.67;;;;;;;11.35;92.89;100453.94;4995339;28;20346;-70
2021/12/25 00:03:08;;;;;;;4.32;3.42;;;;;;;11.37;91.89;100460.00;4996876;28;20022;-70
2021/12/25 00:05:54;;;;;;;5.57;3.50;;;;;;;11.01;92.65;100445.16;4995053;28;20038;-69
2021/12/25 00:08:40;;;;;;;15.32;10.52;;;;;;;11.22;92.11;100446.41;4996401;28;20394;-70
2021/12/25 00:11:26;;;;;;;5.55;4.03;;;;;;;11.48;90.91;100442.25;4996293;28;20116;-70
2021/12/25 00:14:13;;;;;;;3.83;3.25;;;;;;;11.08;91.90;100444.13;4996849;28;20097;-71
2021/12/25 00:17:00;;;;;;;5.72;3.25;;;;;;;11.25;92.21;100449.81;4995931;28;20034;-70
2021/12/25 00:19:46;;;;;;;4.47;3.40;;;;;;;10.94;92.56;100443.59;4996349;28;20034;-70
2021/12/25 00:22:32;;;;;;;5.10;3.50;;;;;;;10.96;93.09;100449.66;4996606;28;20370;-69
2021/12/25 00:25:20;;;;;;;4.63;3.10;;;;;;;11.08;93.16;100454.59;4996131;28;20022;-70
2021/12/25 00:34:01;;;;;;;4.15;3.10;;;;;;;11.33;91.97;100450.47;4984134;28;20026;-71
2021/12/25 00:36:47;;;;;;;4.38;3.20;;;;;;;11.03;93.49;100451.25;4995127;28;20356;-70
2021/12/25 00:39:32;;;;;;;4.80;3.05;;;;;;;11.06;94.34;100450.28;4995963;28;20037;-70
2021/12/25 00:42:19;;;;;;;4.60;3.30;;;;;;;11.06;93.40;100451.16;4994950;28;20034;-71
2021/12/25 00:45:05;;;;;;;6.32;3.40;;;;;;;11.30;92.70;100461.06;4995788;28;20030;-71
2021/12/25 00:47:51;;;;;;;4.60;3.30;;;;;;;11.18;93.66;100450.88;4995475;28;20110;-70
2021/12/25 00:50:37;;;;;;;4.05;2.90;;;;;;;11.01;94.91;100452.16;4980662;28;20026;-71
2021/12/25 00:53:23;;;;;;;4.43;3.00;;;;;;;11.30;93.65;100442.72;4995521;28;20064;-71
2021/12/25 00:56:09;;;;;;;4.57;3.20;;;;;;;11.38;91.96;100442.50;4980286;28;20030;-70
2021/12/25 00:58:55;;;;;;;6.28;3.10;;;;;;;11.50;92.64;100442.19;4994201;28;20042;-71
2021/12/25 01:01:41;;;;;;;3.85;3.28;;;;;;;11.25;92.92;100441.94;4981547;28;20029;-70
2021/12/25 01:04:27;;;;;;;4.10;2.97;;;;;;;11.38;94.00;100442.50;4995559;28;20042;-71
2021/12/25 01:07:13;;;;;;;3.53;2.88;;;;;;;11.28;94.44;100444.50;4980949;28;20065;-68
2021/12/25 01:10:00;;;;;;;3.92;3.08;;;;;;;11.25;95.82;100449.81;4994909;28;20038;-68
2021/12/25 01:13:01;;;;;;;4.63;2.92;;;;;;;11.29;95.72;100451.44;4980778;28;20026;-69
2021/12/25 01:16:18;;;;;;;4.97;3.10;;;;;;;11.33;96.34;100450.47;4995141;28;20041;-69
2021/12/25 01:22:59;;;;;;;4.90;3.30;;;;;;;10.95;98.30;100447.06;4995472;28;20038;-68
2021/12/25 01:32:23;;;;;;;3.97;2.92;;;;;;;11.18;98.67;100456.13;4993677;28;20018;-69
2021/12/25 01:35:41;;;;;;;3.80;3.05;;;;;;;11.09;99.75;100442.38;4995049;28;20045;-69
2021/12/25 01:49:39;;;;;;;5.50;2.90;;;;;;;10.99;99.11;100441.72;4982838;28;20034;-68
2021/12/25 01:52:29;;;;;;;3.28;2.53;;;;;;;11.00;98.91;100442.56;4979898;28;20026;-70
2021/12/25 01:55:18;;;;;;;3.90;2.63;;;;;;;11.34;97.91;100440.88;4995485;28;20026;-68
2021/12/25 01:58:06;;;;;;;5.65;2.65;;;;;;;11.30;96.71;100429.59;4994132;28;20042;-68
2021/12/25 02:00:55;;;;;;;5.30;2.90;;;;;;;11.55;95.46;100441.19;4993440;28;20022;-68
2021/12/25 02:03:42;;;;;;;6.28;2.80;;;;;;;11.31;96.66;100443.56;4993191;28;20034;-68
2021/12/25 02:06:27;;;;;;;3.70;2.78;;;;;;;11.33;96.83;100440.00;4993864;28;20174;-68
2021/12/25 02:09:13;;;;;;;5.32;2.70;;;;;;;11.60;95.59;100431.47;4980399;28;20022;-69
2021/12/25 02:12:00;;;;;;;4.10;2.83;;;;;;;11.12;98.07;100424.78;4993425;28;20034;-68
2021/12/25 02:14:47;;;;;;;3.78;2.67;;;;;;;11.18;97.37;100434.28;4994750;28;20105;-68
2021/12/25 02:17:55;;;;;;;5.95;2.88;;;;;;;11.18;97.66;100429.03;4993441;28;20190;-68
2021/12/25 02:20:54;;;;;;;3.67;2.83;;;;;;;11.22;97.93;100430.69;4995290;28;20034;-68
2021/12/25 02:23:40;;;;;;;4.60;2.70;;;;;;;11.29;97.07;100419.97;4980260;28;20026;-69
2021/12/25 02:26:26;;;;;;;3.83;2.95;;;;;;;11.47;96.74;100432.66;4997992;28;20030;-69
2021/12/25 02:29:12;;;;;;;3.50;2.40;;;;;;;11.52;95.78;100430.75;4997734;28;20481;-68
2021/12/25 02:31:58;;;;;;;3.20;2.40;;;;;;;11.33;96.73;100431.28;4998145;28;20034;-68
2021/12/25 02:34:44;;;;;;;3.60;2.78;;;;;;;11.28;97.22;100420.03;4997883;28;20345;-68
2021/12/25 02:37:30;;;;;;;3.95;2.50;;;;;;;11.36;96.87;100418.94;4998113;28;20435;-68
2021/12/25 02:40:16;;;;;;;3.78;2.50;;;;;;;11.61;95.53;100412.19;4998250;28;20030;-69
2021/12/25 02:43:02;;;;;;;3.15;2.38;;;;;;;11.92;94.08;100407.84;4997742;28;20037;-68
2021/12/25 02:45:48;;;;;;;4.43;2.28;;;;;;;11.59;94.98;100413.09;4998371;28;20034;-68
2021/12/25 02:48:38;;;;;;;2.95;2.40;;;;;;;11.53;94.88;100414.13;4997285;28;20026;-68
2021/12/25 02:51:23;;;;;;;3.85;2.40;;;;;;;11.67;95.66;100416.41;4983847;28;20381;-69
2021/12/25 02:54:09;;;;;;;4.20;2.45;;;;;;;11.33;96.81;100415.53;4997483;28;20374;-68
2021/12/25 02:56:55;;;;;;;6.03;2.53;;;;;;;11.42;96.58;100413.56;4983269;28;20041;-69
2021/12/25 02:59:41;;;;;;;2.97;2.33;;;;;;;11.52;96.52;100415.03;4996101;28;20049;-69
2021/12/25 03:02:27;;;;;;;3.13;2.20;;;;;;;11.22;97.77;100420.19;4998017;28;20448;-68
2021/12/25 03:05:13;;;;;;;2.97;2.22;;;;;;;11.55;96.31;100420.19;4982673;28;20034;-68
2021/12/25 03:07:59;;;;;;;2.65;2.00;;;;;;;11.58;96.22;100416.63;4997742;28;20097;-68
2021/12/25 03:10:46;;;;;;;3.58;2.30;;;;;;;11.40;96.30;100425.84;4997557;28;20089;-68
2021/12/25 03:13:37;;;;;;;2.78;2.00;;;;;;;11.69;95.61;100419.88;4997475;28;20038;-69
2021/12/25 03:16:23;;;;;;;2.92;2.28;;;;;;;11.87;94.01;100427.25;4997202;28;20067;-68
2021/12/25 03:19:18;;;;;;;3.05;2.30;;;;;;;11.63;96.13;100427.88;4997143;28;20026;-68
2021/12/25 03:22:04;;;;;;;3.05;2.25;;;;;;;11.56;96.09;100429.78;4997389;28;20058;-68
2021/12/25 03:24:50;;;;;;;2.55;2.10;;;;;;;11.42;97.08;100428.41;4997007;28;20447;-69
2021/12/25 03:27:38;;;;;;;2.35;2.05;;;;;;;11.19;98.55;100434.25;4997531;28;20040;-68
2021/12/25 03:30:25;;;;;;;3.22;2.30;;;;;;;11.11;100.00;100432.69;4996706;28;20061;-70
2021/12/25 03:33:14;;;;;;;3.35;2.38;;;;;;;11.22;100.00;100436.78;4996944;28;20340;-70
2021/12/25 03:36:03;;;;;;;2.60;2.10;;;;;;;11.36;98.75;100436.44;4994659;28;20113;-70
2021/12/25 03:38:49;;;;;;;3.17;2.40;;;;;;;11.17;100.00;100432.56;4982634;28;20463;-70
2021/12/25 03:41:35;;;;;;;3.95;2.25;;;;;;;11.41;98.39;100435.41;4983167;28;20031;-70
2021/12/25 03:44:21;;;;;;;3.38;2.30;;;;;;;11.10;100.00;100431.84;4996945;28;20021;-70
2021/12/25 03:47:22;;;;;;;2.55;2.17;;;;;;;10.94;100.00;100446.22;4996444;28;20026;-70
2021/12/25 03:53:25;;;;;;;2.38;2.00;;;;;;;11.08;100.00;100446.75;4994809;28;20030;-71
2021/12/25 03:59:16;;;;;;;2.80;2.25;;;;;;;11.01;100.00;100446.94;4996073;28;20142;-71
2021/12/25 04:02:08;;;;;;;2.33;1.88;;;;;;;11.14;100.00;100441.38;4997734;28;20035;-71
2021/12/25 04:04:57;;;;;;;2.92;2.35;;;;;;;11.10;100.00;100444.97;4996456;28;20058;-70
2021/12/25 04:10:34;;;;;;;2.83;2.20;;;;;;;11.35;100.00;100448.69;4996205;28;20169;-71
2021/12/25 04:13:19;;;;;;;3.65;2.30;;;;;;;11.43;99.80;100445.88;4982366;28;20096;-70
2021/12/25 04:16:05;;;;;;;3.80;2.13;;;;;;;11.23;100.00;100456.88;4995448;28;20026;-70
2021/12/25 04:18:51;;;;;;;3.40;2.25;;;;;;;11.47;99.71;100456.25;4995945;28;20030;-71
2021/12/25 04:21:46;;;;;;;4.25;2.20;;;;;;;11.50;98.82;100466.69;4996668;28;20089;-70
2021/12/25 04:24:39;;;;;;;4.43;2.10;;;;;;;11.59;97.62;100479.56;4981466;28;20030;-70
2021/12/25 04:27:24;;;;;;;3.00;2.20;;;;;;;11.45;98.05;100476.41;4981001;28;20022;-71
2021/12/25 04:30:26;;;;;;;3.25;2.33;;;;;;;11.72;97.99;100485.38;4995215;28;20113;-71
2021/12/25 05:04:02;;;;;;;4.05;2.45;;;;;;;11.10;100.00;100501.75;4995388;28;20030;-71
2021/12/25 05:06:48;;;;;;;3.70;2.17;;;;;;;11.64;99.48;100513.56;4995056;28;20451;-70
2021/12/25 05:09:34;;;;;;;2.55;2.05;;;;;;;11.63;98.53;100504.84;4995413;28;20023;-70
2021/12/25 05:12:20;;;;;;;4.70;2.35;;;;;;;11.56;98.74;100521.63;4994391;28;20050;-70
2021/12/25 05:15:07;;;;;;;3.10;1.95;;;;;;;11.67;98.12;100522.25;4995107;28;20367;-70
2021/12/25 05:17:52;;;;;;;5.57;2.15;;;;;;;11.98;96.07;100528.41;4994546;28;20049;-71
2021/12/25 05:20:38;;;;;;;4.18;2.28;;;;;;;12.00;96.16;100531.00;4995951;28;20042;-70
2021/12/25 05:23:24;;;;;;;3.03;2.20;;;;;;;12.06;95.44;100541.38;4995052;28;20033;-70
2021/12/25 05:26:10;;;;;;;3.42;2.17;;;;;;;12.00;95.35;100537.13;4993705;28;20030;-70
2021/12/25 05:29:00;;;;;;;3.28;2.30;;;;;;;12.26;94.85;100536.44;4994388;28;20331;-70
2021/12/25 05:31:46;;;;;;;3.20;2.30;;;;;;;11.99;96.36;100547.66;4982091;28;20104;-70
2021/12/25 05:34:32;;;;;;;3.58;2.60;;;;;;;12.11;95.91;100553.47;4993883;28;20031;-70
2021/12/25 05:37:17;;;;;;;4.22;2.40;;;;;;;11.34;99.46;100549.28;4994126;28;20026;-70
2021/12/25 05:40:05;;;;;;;4.78;2.75;;;;;;;11.71;99.54;100552.78;4980644;28;20041;-70
2021/12/25 05:42:51;;;;;;;4.45;2.72;;;;;;;12.00;97.70;100552.88;4993651;28;20034;-70
2021/12/25 05:45:37;;;;;;;2.72;2.15;;;;;;;11.73;98.08;100558.81;4993933;28;20030;-71
2021/12/25 05:48:23;;;;;;;3.05;2.30;;;;;;;11.48;100.00;100564.66;4980391;28;20100;-71
2021/12/25 05:51:08;;;;;;;3.13;2.15;;;;;;;11.78;98.60;100566.59;4994910;28;20121;-70
2021/12/25 05:53:54;;;;;;;3.17;2.38;;;;;;;11.76;97.90;100569.25;4980623;28;20444;-70
2021/12/25 05:56:40;;;;;;;2.95;1.92;;;;;;;11.91;97.90;100560.13;4994157;28;20026;-71
2021/12/25 05:59:26;;;;;;;3.25;2.38;;;;;;;11.92;97.94;100567.09;4980628;28;20047;-70
2021/12/25 06:02:12;;;;;;;3.80;2.13;;;;;;;12.19;96.58;100566.41;4998202;28;20079;-71
2021/12/25 06:05:00;;;;;;;6.38;2.15;;;;;;;11.98;97.16;100559.94;4998062;28;20022;-70
2021/12/25 06:07:46;;;;;;;3.17;2.05;;;;;;;12.15;96.13;100570.88;4998394;28;20445;-69
2021/12/25 06:10:32;;;;;;;4.80;2.28;;;;;;;11.84;97.75;100558.56;4998352;28;20518;-71
2021/12/25 06:13:20;;;;;;;2.20;1.90;;;;;;;11.75;98.76;100551.78;4998262;28;20054;-70
2021/12/25 06:16:06;;;;;;;2.85;2.15;;;;;;;12.08;97.08;100555.31;4998446;28;20113;-69
2021/12/25 06:18:52;;;;;;;3.95;2.10;;;;;;;11.97;97.06;100550.34;4983860;28;20030;-70
2021/12/25 06:21:38;;;;;;;2.70;2.17;;;;;;;12.07;96.46;100551.84;4984236;28;20061;-71
2021/12/25 06:24:25;;;;;;;2.38;2.03;;;;;;;12.06;96.23;100554.50;4998069;28;20030;-70
2021/12/25 06:27:11;;;;;;;2.80;2.10;;;;;;;11.77;97.58;100560.47;4984922;28;20050;-70
2021/12/25 06:29:57;;;;;;;2.58;2.15;;;;;;;11.87;96.62;100559.34;4998077;28;20389;-71
2021/12/25 06:32:43;;;;;;;3.72;2.17;;;;;;;12.11;96.32;100556.09;4997734;28;20081;-70
2021/12/25 06:35:29;;;;;;;3.42;2.28;;;;;;;12.42;94.29;100558.78;4997285;28;20030;-71
2021/12/25 06:38:14;;;;;;;3.78;2.08;;;;;;;12.54;93.75;100571.56;4996921;28;20057;-70
2021/12/25 06:41:00;;;;;;;2.85;2.20;;;;;;;12.29;94.18;100578.38;4983898;28;20034;-71
2021/12/25 06:43:46;;;;;;;2.47;1.80;;;;;;;12.32;94.65;100578.28;4984415;28;20058;-70
2021/12/25 06:46:32;;;;;;;2.15;1.90;;;;;;;12.36;94.43;100578.19;4983510;28;20034;-69
2021/12/25 06:49:19;;;;;;;3.50;2.22;;;;;;;12.56;93.46;100580.25;4998253;28;20026;-72
2021/12/25 06:52:05;;;;;;;3.28;2.47;;;;;;;12.21;95.96;100582.97;4983996;28;20353;-71
2021/12/25 06:54:50;;;;;;;3.42;2.47;;;;;;;12.32;94.96;100583.56;4997681;28;20029;-70
2021/12/25 06:57:43;;;;;;;2.95;2.35;;;;;;;12.21;95.60;100585.59;4982658;28;20058;-70
2021/12/25 07:00:29;;;;;;;3.65;2.50;;;;;;;12.27;96.14;100596.81;4996835;28;20041;-70
2021/12/25 07:03:15;;;;;;;4.38;2.30;;;;;;;12.51;95.05;100596.19;4997440;28;20471;-70
2021/12/25 07:06:01;;;;;;;3.80;2.50;;;;;;;12.02;97.24;100600.97;4996791;28;20375;-70
2021/12/25 07:08:47;;;;;;;4.72;2.92;;;;;;;12.49;95.80;100600.59;4996484;28;20027;-70
2021/12/25 07:11:34;;;;;;;2.72;2.30;;;;;;;11.83;99.53;100591.84;4981629;28;20040;-69
2021/12/25 07:14:19;;;;;;;4.72;2.90;;;;;;;12.37;97.22;100598.28;4996864;28;20440;-70
2021/12/25 07:17:05;;;;;;;2.97;2.58;;;;;;;12.61;95.80;100595.00;4996544;28;20124;-69
2021/12/25 07:19:51;;;;;;;3.70;2.50;;;;;;;12.25;97.23;100595.13;4982921;28;20030;-70
2021/12/25 07:22:37;;;;;;;5.18;3.03;;;;;;;12.26;98.12;100599.50;4997351;28;20250;-70
2021/12/25 07:25:24;;;;;;;3.90;2.65;;;;;;;12.36;97.10;100603.59;4997404;28;20366;-70
2021/12/25 07:28:10;;;;;;;3.78;2.92;;;;;;;12.63;96.91;100598.47;4996066;28;20426;-69
2021/12/25 07:30:58;;;;;;;6.07;3.28;;;;;;;12.63;95.50;100601.09;4995667;28;20187;-70
2021/12/25 07:33:44;;;;;;;5.40;3.70;;;;;;;12.70;94.98;100593.91;4996379;28;20046;-70
2021/12/25 07:36:30;;;;;;;6.25;3.30;;;;;;;12.92;93.38;100610.78;4995544;28;20026;-71
2021/12/25 07:39:15;;;;;;;5.95;3.42;;;;;;;13.06;92.73;100622.66;4996161;28;20085;-70
2021/12/25 07:42:01;;;;;;;7.72;3.90;;;;;;;13.19;91.48;100613.47;4996103;28;20411;-69
2021/12/25 07:44:53;;;;;;;5.45;3.72;;;;;;;13.06;92.17;100627.06;4997159;28;20038;-70
2021/12/25 07:47:45;;;;;;;8.93;5.60;;;;;;;13.03;92.45;100624.53;4996081;28;20081;-70
2021/12/25 07:50:34;;;;;;;4.65;3.20;;;;;;;13.12;91.64;100617.22;4982564;28;20026;-70
2021/12/25 07:53:20;;;;;;;5.13;3.13;;;;;;;12.46;94.14;100626.94;4996591;28;20114;-70
2021/12/25 07:56:06;;;;;;;3.60;2.72;;;;;;;13.02;92.35;100628.91;4982996;28;20038;-70
2021/12/25 07:58:52;;;;;;;4.65;3.00;;;;;;;13.13;92.14;100633.84;4994945;28;20447;-70
2021/12/25 08:01:38;;;;;;;6.43;3.50;;;;;;;13.00;92.28;100633.38;4997538;28;20045;-69
2021/12/25 08:04:24;;;;;;;6.18;3.33;;;;;;;13.33;91.00;100632.38;4995835;28;20037;-69
2021/12/25 08:07:10;;;;;;;4.15;3.25;;;;;;;13.39;90.45;100636.59;4995570;28;20159;-70
2021/12/25 08:10:03;;;;;;;3.88;2.90;;;;;;;13.16;91.06;100634.66;4996113;28;20032;-71
2021/12/25 08:12:54;;;;;;;3.80;2.95;;;;;;;13.26;91.10;100640.50;4994835;28;20089;-70
2021/12/25 08:15:41;;;;;;;4.70;3.08;;;;;;;13.38;90.75;100643.63;4995150;28;20030;-70
2021/12/25 08:18:27;;;;;;;4.60;2.97;;;;;;;14.01;88.04;100648.63;4995338;28;20030;-69
2021/12/25 08:21:13;;;;;;;5.13;3.53;;;;;;;14.07;87.70;100654.56;4995929;28;20169;-70
2021/12/25 08:23:59;;;;;;;4.63;3.55;;;;;;;13.90;88.27;100656.03;4995440;28;20035;-70
2021/12/25 08:26:46;;;;;;;6.45;4.30;;;;;;;14.15;87.29;100659.59;4981166;28;20093;-70
2021/12/25 08:29:36;;;;;;;7.10;4.20;;;;;;;14.13;87.25;100659.66;4995719;28;20438;-69
2021/12/25 08:32:22;;;;;;;4.53;2.88;;;;;;;13.82;88.58;100658.03;4995772;28;20392;-69
2021/12/25 08:35:10;;;;;;;7.15;3.20;;;;;;;13.32;91.08;100648.19;4994784;28;20045;-71
2021/12/25 08:37:56;;;;;;;5.20;3.40;;;;;;;13.76;89.77;100642.44;4996754;28;20058;-70
2021/12/25 08:40:43;;;;;;;6.32;3.80;;;;;;;14.03;88.79;100645.03;4982349;28;20033;-70
2021/12/25 08:43:34;;;;;;;5.40;3.60;;;;;;;14.55;86.38;100637.13;4981345;28;20029;-70
2021/12/25 08:46:35;;;;;;;9.23;4.60;;;;;;;13.89;88.73;100633.22;4995315;28;20034;-70
2021/12/25 08:49:24;;;;;;;9.73;5.18;;;;;;;14.00;88.32;100636.38;4995844;28;20424;-70
2021/12/25 08:52:13;;;;;;;12.98;5.30;;;;;;;14.03;88.88;100641.56;4981090;28;20043;-70
2021/12/25 08:54:59;;;;;;;10.02;6.00;;;;;;;14.32;87.84;100639.69;4994665;28;20034;-71
2021/12/25 08:57:45;;;;;;;15.65;6.82;;;;;;;14.15;88.62;100646.44;4994901;28;20046;-71
2021/12/25 09:00:31;;;;;;;6.88;4.63;;;;;;;13.95;88.64;100633.91;4994778;28;20110;-70
2021/12/25 09:03:17;;;;;;;12.30;4.90;;;;;;;14.02;87.52;100640.69;4980632;28;20058;-71
2021/12/25 09:06:03;;;;;;;9.93;4.75;;;;;;;14.28;87.07;100635.44;4995082;28;20050;-71
2021/12/25 09:08:49;;;;;;;9.77;3.95;;;;;;;14.51;85.38;100638.16;4995298;28;20093;-71
2021/12/25 09:11:39;;;;;;;7.72;3.83;;;;;;;14.62;85.70;100641.28;4980928;28;20089;-71
2021/12/25 09:14:25;;;;;;;10.02;4.50;;;;;;;14.56;84.06;100632.75;4980533;28;20030;-70
2021/12/25 09:17:12;;;;;;;9.30;4.72;;;;;;;15.02;83.59;100624.88;4994231;28;20030;-70
2021/12/25 09:19:58;;;;;;;5.63;3.70;;;;;;;15.65;81.43;100611.91;4994729;28;20026;-71
2021/12/25 09:22:44;;;;;;;10.25;4.82;;;;;;;15.52;80.64;100618.59;4980751;28;20481;-70
2021/12/25 09:25:32;;;;;;;4.78;2.78;;;;;;;15.20;82.10;100612.78;4981124;28;20096;-71
2021/12/25 09:28:18;;;;;;;6.18;3.70;;;;;;;14.60;84.53;100621.16;4994536;28;20033;-71
2021/12/25 09:31:04;;;;;;;6.60;3.95;;;;;;;14.71;85.18;100611.13;4981435;28;20062;-70
2021/12/25 09:33:52;;;;;;;6.82;3.80;;;;;;;14.98;85.37;100603.97;4994086;28;20026;-70
2021/12/25 09:36:37;;;;;;;9.98;5.47;;;;;;;15.14;85.04;100599.84;4994125;28;20446;-70
2021/12/25 09:39:23;;;;;;;8.27;5.00;;;;;;;14.78;86.72;100597.63;4993701;28;20490;-70
2021/12/25 09:42:10;;;;;;;5.68;3.70;;;;;;;15.46;85.94;100587.13;4993676;28;20023;-71
2021/12/25 09:44:55;;;;;;;5.45;3.10;;;;;;;15.31;86.47;100586.84;4994505;28;20117;-70
2021/12/25 09:47:41;;;;;;;5.55;3.42;;;;;;;15.24;87.58;100583.59;4993893;28;20109;-70
2021/12/25 09:50:27;;;;;;;6.53;3.30;;;;;;;15.24;86.77;100566.88;4980885;28;20053;-70
2021/12/25 09:53:15;;;;;;;5.18;3.20;;;;;;;15.36;87.93;100569.06;4994797;28;20395;-71
2021/12/25 09:56:03;;;;;;;4.72;3.15;;;;;;;15.34;87.79;100582.28;4980710;28;20030;-71
2021/12/25 09:58:48;;;;;;;5.57;3.25;;;;;;;15.27;89.37;100572.03;4993081;28;20046;-70
2021/12/25 10:01:41;;;;;;;4.15;2.53;;;;;;;15.60;89.08;100578.66;4993559;28;20118;-70
2021/12/25 10:04:40;;;;;;;4.43;3.20;;;;;;;16.08;87.30;100572.22;4980939;28;20062;-70
2021/12/25 10:07:29;;;;;;;8.00;3.80;;;;;;;15.88;87.74;100564.28;4994184;28;20402;-70
2021/12/25 10:10:16;;;;;;;5.45;2.97;;;;;;;15.94;87.24;100564.00;4980344;28;20070;-70
2021/12/25 10:13:02;;;;;;;4.72;2.60;;;;;;;16.05;85.88;100563.56;4993933;28;20100;-70
2021/12/25 10:15:50;;;;;;;5.30;2.80;;;;;;;16.09;85.79;100570.44;4980504;28;20462;-71
2021/12/25 10:18:36;;;;;;;4.80;3.08;;;;;;;15.88;86.65;100564.28;4993592;28;20049;-70
2021/12/25 10:21:25;;;;;;;3.95;2.50;;;;;;;15.91;86.00;100560.66;4994438;28;20113;-70
2021/12/25 10:24:19;;;;;;;6.70;3.60;;;;;;;16.05;85.29;100559.16;4993689;28;20105;-72
2021/12/25 10:27:14;;;;;;;4.85;2.85;;;;;;;16.24;83.81;100546.84;4994372;28;20027;-71
2021/12/25 10:30:03;;;;;;;4.50;2.60;;;;;;;16.35;82.62;100554.34;4980532;28;20367;-71
2021/12/25 10:32:50;;;;;;;6.05;2.92;;;;;;;16.87;81.73;100548.44;4979121;28;20057;-70
2021/12/25 10:35:37;;;;;;;8.38;3.85;;;;;;;16.57;81.43;100550.72;4993828;28;20463;-70
2021/12/25 10:38:24;;;;;;;8.57;4.78;;;;;;;16.84;82.27;100554.75;4979664;28;20038;-70
2021/12/25 10:41:18;;;;;;;6.57;4.10;;;;;;;16.82;82.00;100545.16;4993975;28;20108;-70
2021/12/25 10:44:12;;;;;;;4.30;3.25;;;;;;;17.05;81.42;100537.91;4994514;28;20031;-72
2021/12/25 10:47:04;;;;;;;5.13;2.97;;;;;;;17.01;82.80;100546.03;4983032;28;20026;-71
2021/12/25 10:49:53;;;;;;;8.63;3.28;;;;;;;17.03;82.08;100529.16;4983913;28;20439;-70
2021/12/25 10:52:44;;;;;;;9.73;5.10;;;;;;;17.55;81.49;100548.75;4997992;28;20034;-71
2021/12/25 10:55:29;;;;;;;4.10;2.67;;;;;;;17.38;82.46;100532.78;4996666;28;20053;-70
2021/12/25 10:58:21;;;;;;;5.82;3.20;;;;;;;17.58;81.93;100538.00;4983062;28;20482;-71
2021/12/25 11:01:10;;;;;;;4.22;2.75;;;;;;;17.77;81.39;100541.47;4996815;28;20040;-70
2021/12/25 11:03:56;;;;;;;4.78;3.00;;;;;;;17.70;81.70;100540.06;4997131;28;20026;-71
2021/12/25 11:06:42;;;;;;;6.78;3.28;;;;;;;17.22;83.75;100532.66;4995891;28;20439;-70
2021/12/25 11:09:29;;;;;;;4.10;2.58;;;;;;;17.37;84.49;100528.44;4982884;28;20034;-71
2021/12/25 11:12:21;;;;;;;4.82;3.03;;;;;;;17.43;85.44;100536.97;4982890;28;20117;-70
2021/12/25 11:15:18;;;;;;;6.45;3.28;;;;;;;17.87;84.67;100545.38;4996866;28;20034;-71
2021/12/25 11:18:06;;;;;;;6.40;2.90;;;;;;;17.86;84.82;100541.00;4982892;28;20030;-70
2021/12/25 11:20:53;;;;;;;7.00;4.10;;;;;;;17.92;84.67;100538.91;4997000;28;20447;-70
2021/12/25 11:23:39;;;;;;;6.97;3.53;;;;;;;18.29;82.09;100532.59;4996994;28;20042;-71
2021/12/25 11:26:25;;;;;;;4.60;3.00;;;;;;;18.08;80.56;100538.97;4997020;28;20142;-71
2021/12/25 11:29:14;;;;;;;5.85;2.65;;;;;;;17.87;80.48;100534.78;4996997;28;20031;-70
2021/12/25 11:32:00;;;;;;;3.97;2.88;;;;;;;18.45;78.46;100538.88;4997176;28;20051;-71
2021/12/25 11:34:46;;;;;;;8.27;2.80;;;;;;;18.25;77.19;100539.84;4995673;28;20454;-71
2021/12/25 11:37:32;;;;;;;4.55;2.40;;;;;;;18.25;77.50;100529.22;4996541;28;20042;-71
2021/12/25 11:40:21;;;;;;;5.22;2.55;;;;;;;17.88;78.51;100532.03;4981794;28;20029;-71
2021/12/25 11:43:07;;;;;;;7.35;2.85;;;;;;;17.19;81.13;100524.84;4995951;28;20363;-70
2021/12/25 11:45:53;;;;;;;4.10;2.78;;;;;;;16.99;83.09;100532.88;4995969;28;20088;-71
2021/12/25 11:48:39;;;;;;;4.80;3.10;;;;;;;17.03;84.32;100528.28;4995996;28;20466;-71
2021/12/25 11:51:29;;;;;;;5.43;2.92;;;;;;;16.86;86.31;100531.75;4996401;28;20099;-71
2021/12/25 11:57:58;;;;;;;4.18;2.70;;;;;;;16.83;88.75;100525.69;4994507;28;20471;-71
2021/12/25 12:00:47;;;;;;;6.15;3.80;;;;;;;17.12;88.85;100525.22;4996100;28;20045;-72
2021/12/25 12:03:44;;;;;;;8.07;3.70;;;;;;;17.08;90.24;100523.66;4996559;28;20128;-70
2021/12/25 12:06:48;;;;;;;6.93;3.55;;;;;;;17.07;89.03;100536.03;4995978;28;20411;-71
2021/12/25 12:09:51;;;;;;;5.97;3.05;;;;;;;16.97;87.66;100531.25;4996374;28;20030;-71
2021/12/25 12:12:37;;;;;;;4.22;2.50;;;;;;;17.09;85.89;100526.25;4996814;28;20034;-71
2021/12/25 12:15:23;;;;;;;6.38;3.25;;;;;;;17.15;84.60;100514.47;4982662;28;20040;-71
2021/12/25 12:18:24;;;;;;;7.72;3.10;;;;;;;17.15;85.10;100528.59;4981479;28;20097;-70
2021/12/25 12:21:16;;;;;;;7.07;3.53;;;;;;;17.11;84.74;100531.44;4995266;28;20049;-70
2021/12/25 12:24:46;;;;;;;3.88;2.40;;;;;;;17.35;83.44;100525.84;4995767;28;20046;-70
2021/12/25 12:27:48;;;;;;;4.70;2.47;;;;;;;17.54;83.14;100531.16;4996912;28;20049;-71
2021/12/25 12:30:34;;;;;;;6.15;3.10;;;;;;;17.42;83.28;100531.75;4994285;28;20040;-69
2021/12/25 12:33:19;;;;;;;8.80;3.70;;;;;;;17.43;83.92;100525.50;4995885;28;20045;-70
2021/12/25 12:36:21;;;;;;;5.90;3.17;;;;;;;17.10;85.96;100522.66;4995431;28;20046;-69
2021/12/25 12:39:20;;;;;;;5.05;2.80;;;;;;;17.07;86.31;100521.91;4995656;28;20019;-70
2021/12/25 12:42:09;;;;;;;7.25;4.18;;;;;;;17.03;87.10;100513.28;4996108;28;20030;-69
2021/12/25 12:45:11;;;;;;;6.15;3.00;;;;;;;17.20;87.58;100509.84;4981477;28;20030;-70
2021/12/25 12:48:19;;;;;;;4.63;2.58;;;;;;;17.38;87.55;100511.59;4995964;28;20114;-70
2021/12/25 12:51:18;;;;;;;3.25;2.10;;;;;;;17.19;88.53;100514.28;4996448;28;20030;-70
2021/12/25 12:54:04;;;;;;;3.42;2.08;;;;;;;17.21;89.25;100511.56;4995737;28;20026;-70
2021/12/25 12:57:04;;;;;;;5.85;2.40;;;;;;;17.62;87.30;100515.72;4994803;28;20049;-70
2021/12/25 12:59:52;;;;;;;3.95;2.70;;;;;;;17.58;87.83;100514.16;4993428;28;20049;-70
2021/12/25 13:02:41;;;;;;;4.32;2.88;;;;;;;17.26;89.56;100514.84;4994025;28;20030;-70
2021/12/25 13:05:38;;;;;;;7.07;3.13;;;;;;;16.83;91.72;100509.81;4993240;28;20151;-69
2021/12/25 13:08:29;;;;;;;4.32;2.90;;;;;;;16.62;93.54;100510.81;4993536;28;20446;-70
2021/12/25 13:11:23;;;;;;;6.85;3.83;;;;;;;17.10;91.82;100505.91;4993693;28;20049;-70
2021/12/25 13:14:10;;;;;;;6.78;3.30;;;;;;;17.33;89.85;100517.09;4994051;28;20027;-70
2021/12/25 13:16:56;;;;;;;5.70;3.22;;;;;;;16.78;92.10;100522.41;4995085;28;20371;-71
2021/12/25 13:19:47;;;;;;;6.32;2.90;;;;;;;16.57;92.91;100526.03;4994268;28;20030;-69
2021/12/25 13:22:32;;;;;;;7.65;2.90;;;;;;;16.61;93.62;100520.56;4994314;28;20038;-71
2021/12/25 13:25:19;;;;;;;5.82;3.60;;;;;;;16.58;93.36;100523.34;4993889;28;20027;-70
2021/12/25 13:28:05;;;;;;;5.28;3.42;;;;;;;16.66;92.94;100526.50;4993824;28;20030;-68
2021/12/25 13:31:16;;;;;;;5.65;2.92;;;;;;;16.87;91.96;100532.56;4993413;28;20046;-70
2021/12/25 13:34:13;;;;;;;7.82;3.85;;;;;;;16.57;92.64;100524.25;4978760;28;20030;-70
2021/12/25 13:36:59;;;;;;;5.53;3.70;;;;;;;16.59;93.08;100524.19;4993941;28;20081;-70
2021/12/25 13:39:45;;;;;;;4.72;3.47;;;;;;;16.51;93.17;100537.75;4993562;28;20036;-70
2021/12/25 13:42:31;;;;;;;6.20;3.28;;;;;;;16.52;92.50;100522.75;4993765;28;20462;-70
2021/12/25 13:45:19;;;;;;;5.15;2.72;;;;;;;16.41;93.06;100522.34;4994479;28;20109;-69
2021/12/25 13:48:05;;;;;;;6.63;3.45;;;;;;;16.62;91.99;100526.69;4993826;28;20093;-69
2021/12/25 13:51:01;;;;;;;7.05;4.85;;;;;;;16.30;93.63;100514.00;4993966;28;20049;-70
2021/12/25 13:53:46;;;;;;;7.57;4.93;;;;;;;16.18;94.91;100515.41;4993370;28;20065;-70
2021/12/25 13:56:32;;;;;;;7.13;4.85;;;;;;;16.20;95.57;100516.19;4994439;28;20042;-70
2021/12/25 13:59:19;;;;;;;5.57;3.88;;;;;;;16.15;96.85;100514.69;4954984;28;1139148;-71
2021/12/25 14:02:08;;;;;;;7.00;4.30;;;;;;;16.30;96.94;100524.56;4994931;28;20045;-70
2021/12/25 14:04:57;;;;;;;6.10;4.30;;;;;;;16.32;96.41;100517.44;4993381;28;20031;-71
2021/12/25 14:07:43;;;;;;;7.82;5.18;;;;;;;16.19;97.09;100513.63;4995349;28;20038;-70
2021/12/25 14:10:33;;;;;;;8.00;5.20;;;;;;;16.31;97.90;100513.94;4994463;28;20034;-70
2021/12/25 14:13:21;;;;;;;9.60;5.65;;;;;;;16.42;97.76;100510.84;4993910;28;20109;-70